This is the latest recevied weather packets stored in our database for station/object 9M4GEK-3. If no packets are shown the sender has not sent any weather packets the latest 10 day(s).
| Time | Temp. | Humidity | Pressure | Rain* | Wind** | Luminosity | Snow |
|---|---|---|---|---|---|---|---|
| 1777545664 | 28.33° C | 69% | 1005.6 hPa | - | - | - | - |
| 1777544763 | 28.33° C | 69% | 1005.2 hPa | - | - | - | - |
| 1777544115 | 28.33° C | 69% | 1005.4 hPa | - | - | - | - |
| 1777543863 | 28.33° C | 69% | 1005.4 hPa | - | - | - | - |
| 1777542963 | 28.33° C | 69% | 1005.9 hPa | - | - | - | - |
| 1777542063 | 27.78° C | 70% | 1005.2 hPa | - | - | - | - |
| 1777541163 | 27.22° C | 71% | 1005.1 hPa | - | - | - | - |
| 1777540263 | 27.22° C | 71% | 1006 hPa | - | - | - | - |
| 1777539520 | 26.67° C | 76% | 1005.5 hPa | - | - | - | - |
| 1777539362 | 26.67° C | 76% | 1005.5 hPa | - | - | - | - |
| 1777538608 | 25.56° C | 79% | 1004.8 hPa | - | - | - | - |
| 1777538462 | 25.56° C | 79% | 1004.8 hPa | - | - | - | - |
| 1777537562 | 30° C | 65% | 1004.9 hPa | - | - | - | - |
| 1777536662 | 33.33° C | 53% | 1005.3 hPa | - | - | - | - |
| 1777535762 | 37.22° C | 45% | 1005.3 hPa | - | - | - | - |
| 1777535054 | 41.11° C | 40% | 1005.3 hPa | - | - | - | - |
| 1777534862 | 41.11° C | 40% | 1005.3 hPa | - | - | - | - |
| 1777534055 | 38.89° C | 43% | 1005.7 hPa | - | - | - | - |
| 1777533962 | 38.89° C | 43% | 1005.7 hPa | - | - | - | - |
| 1777533062 | 35° C | 48% | 1006 hPa | - | - | - | - |
| 1777532313 | 37.22° C | 40% | 1006.1 hPa | - | - | - | - |
| 1777532161 | 37.22° C | 40% | 1006.1 hPa | - | - | - | - |
| 1777531403 | 41.67° C | 33% | 1006.3 hPa | - | - | - | - |
| 1777531262 | 41.67° C | 33% | 1006.3 hPa | - | - | - | - |
| 1777530361 | 42.22° C | 32% | 1006.5 hPa | - | - | - | - |
* Rain since midnight (hover to see other rain measurements)
** Current wind speed in m/s (hover to see current wind gust speed)